< < Back
Terminal Aerodrome Forecast


Current Version              Previous Versions:   1  2  3  4  5  6  7  8  9  

Terminal Aerodrome Forecast

016
FTUS42 KTAE 292323
TAFVLD
TAF
KVLD 292323Z 3000/3024 06009KT P6SM SCT050
     FM301900 07010KT P6SM VCTS SCT040CB=

Latest METAR

799
SAUS70 KWBC 300300 RRJ
MTRVLD
METAR KVLD 300253Z AUTO 00000KT 10SM CLR 26/23 A3001 RMK AO2 SLP166
T02560233 51009


USA.gov is the U.S. government's official web portal to all federal, state and local government web resources and services.